sensor_id;sensor_type;location;lat;lon;timestamp;P1;durP1;ratioP1;P2;durP2;ratioP2
37907;SDS011;23740;51.550;6.846;2023-11-19T00:00:22;7.63;;;5.53;;
37907;SDS011;23740;51.550;6.846;2023-11-19T00:02:50;8.68;;;5.35;;
37907;SDS011;23740;51.550;6.846;2023-11-19T00:05:18;12.43;;;5.95;;
37907;SDS011;23740;51.550;6.846;2023-11-19T00:07:46;9.05;;;5.55;;
37907;SDS011;23740;51.550;6.846;2023-11-19T00:10:15;9.43;;;6.13;;
37907;SDS011;23740;51.550;6.846;2023-11-19T00:12:46;10.15;;;6.28;;
37907;SDS011;23740;51.550;6.846;2023-11-19T00:15:14;10.45;;;6.32;;
37907;SDS011;23740;51.550;6.846;2023-11-19T00:17:44;11.98;;;6.40;;
37907;SDS011;23740;51.550;6.846;2023-11-19T00:20:14;11.77;;;6.63;;
37907;SDS011;23740;51.550;6.846;2023-11-19T00:22:43;9.80;;;6.28;;
37907;SDS011;23740;51.550;6.846;2023-11-19T00:25:16;11.50;;;5.97;;
37907;SDS011;23740;51.550;6.846;2023-11-19T00:27:44;10.93;;;6.10;;
37907;SDS011;23740;51.550;6.846;2023-11-19T00:30:12;8.27;;;5.60;;
37907;SDS011;23740;51.550;6.846;2023-11-19T00:32:43;9.27;;;5.60;;
37907;SDS011;23740;51.550;6.846;2023-11-19T00:35:12;9.38;;;5.88;;
37907;SDS011;23740;51.550;6.846;2023-11-19T00:37:41;7.18;;;5.15;;
37907;SDS011;23740;51.550;6.846;2023-11-19T00:40:14;8.93;;;5.25;;
37907;SDS011;23740;51.550;6.846;2023-11-19T00:42:45;10.80;;;5.25;;
37907;SDS011;23740;51.550;6.846;2023-11-19T00:45:13;6.70;;;4.90;;
37907;SDS011;23740;51.550;6.846;2023-11-19T00:47:40;7.57;;;4.43;;
37907;SDS011;23740;51.550;6.846;2023-11-19T00:50:10;8.80;;;4.30;;
37907;SDS011;23740;51.550;6.846;2023-11-19T00:52:39;6.22;;;3.95;;
37907;SDS011;23740;51.550;6.846;2023-11-19T00:55:07;8.55;;;4.50;;
37907;SDS011;23740;51.550;6.846;2023-11-19T00:57:36;6.65;;;4.30;;
37907;SDS011;23740;51.550;6.846;2023-11-19T01:00:04;6.28;;;4.50;;
37907;SDS011;23740;51.550;6.846;2023-11-19T01:02:45;6.80;;;4.88;;
37907;SDS011;23740;51.550;6.846;2023-11-19T01:05:15;6.63;;;4.03;;
37907;SDS011;23740;51.550;6.846;2023-11-19T01:07:47;4.55;;;3.97;;
37907;SDS011;23740;51.550;6.846;2023-11-19T01:10:15;5.90;;;3.67;;
37907;SDS011;23740;51.550;6.846;2023-11-19T01:12:45;15.75;;;5.75;;
37907;SDS011;23740;51.550;6.846;2023-11-19T01:15:13;7.15;;;4.38;;
37907;SDS011;23740;51.550;6.846;2023-11-19T01:17:41;6.18;;;3.67;;
37907;SDS011;23740;51.550;6.846;2023-11-19T01:20:20;6.10;;;3.33;;
37907;SDS011;23740;51.550;6.846;2023-11-19T01:22:48;5.15;;;3.83;;
37907;SDS011;23740;51.550;6.846;2023-11-19T01:25:16;4.95;;;3.70;;
37907;SDS011;23740;51.550;6.846;2023-11-19T01:27:43;7.25;;;3.83;;
37907;SDS011;23740;51.550;6.846;2023-11-19T01:30:12;5.85;;;3.83;;
37907;SDS011;23740;51.550;6.846;2023-11-19T01:32:40;4.65;;;3.17;;
37907;SDS011;23740;51.550;6.846;2023-11-19T01:35:08;7.45;;;4.00;;
37907;SDS011;23740;51.550;6.846;2023-11-19T01:37:38;5.22;;;4.32;;
37907;SDS011;23740;51.550;6.846;2023-11-19T01:40:06;5.45;;;3.65;;
37907;SDS011;23740;51.550;6.846;2023-11-19T01:42:37;5.53;;;3.67;;
37907;SDS011;23740;51.550;6.846;2023-11-19T01:45:05;7.78;;;4.32;;
37907;SDS011;23740;51.550;6.846;2023-11-19T01:47:34;5.10;;;3.88;;
37907;SDS011;23740;51.550;6.846;2023-11-19T01:50:03;5.43;;;3.53;;
37907;SDS011;23740;51.550;6.846;2023-11-19T01:52:33;6.07;;;3.40;;
37907;SDS011;23740;51.550;6.846;2023-11-19T01:55:04;6.45;;;3.38;;
37907;SDS011;23740;51.550;6.846;2023-11-19T01:57:32;3.95;;;3.15;;
37907;SDS011;23740;51.550;6.846;2023-11-19T02:00:00;5.25;;;3.45;;
37907;SDS011;23740;51.550;6.846;2023-11-19T02:02:29;5.70;;;2.75;;
37907;SDS011;23740;51.550;6.846;2023-11-19T02:04:58;4.70;;;2.80;;
37907;SDS011;23740;51.550;6.846;2023-11-19T02:07:26;4.60;;;2.60;;
37907;SDS011;23740;51.550;6.846;2023-11-19T02:09:54;6.05;;;3.30;;
37907;SDS011;23740;51.550;6.846;2023-11-19T02:12:26;7.05;;;3.05;;
37907;SDS011;23740;51.550;6.846;2023-11-19T02:14:54;3.33;;;2.53;;
37907;SDS011;23740;51.550;6.846;2023-11-19T02:17:25;4.32;;;2.90;;
37907;SDS011;23740;51.550;6.846;2023-11-19T02:19:54;5.78;;;2.90;;
37907;SDS011;23740;51.550;6.846;2023-11-19T02:22:22;5.07;;;2.55;;
37907;SDS011;23740;51.550;6.846;2023-11-19T02:24:51;4.20;;;2.65;;
37907;SDS011;23740;51.550;6.846;2023-11-19T02:27:21;4.88;;;2.97;;
37907;SDS011;23740;51.550;6.846;2023-11-19T02:29:58;4.75;;;3.00;;
37907;SDS011;23740;51.550;6.846;2023-11-19T02:32:27;3.80;;;2.58;;
37907;SDS011;23740;51.550;6.846;2023-11-19T02:34:57;4.38;;;2.75;;
37907;SDS011;23740;51.550;6.846;2023-11-19T02:37:33;4.88;;;2.58;;
37907;SDS011;23740;51.550;6.846;2023-11-19T02:40:01;4.82;;;3.30;;
37907;SDS011;23740;51.550;6.846;2023-11-19T02:42:31;5.05;;;2.95;;
37907;SDS011;23740;51.550;6.846;2023-11-19T02:45:00;5.38;;;3.28;;
37907;SDS011;23740;51.550;6.846;2023-11-19T02:47:33;5.63;;;3.33;;
37907;SDS011;23740;51.550;6.846;2023-11-19T02:50:01;5.30;;;3.10;;
37907;SDS011;23740;51.550;6.846;2023-11-19T02:52:29;4.40;;;2.63;;
37907;SDS011;23740;51.550;6.846;2023-11-19T02:55:01;5.57;;;3.53;;
37907;SDS011;23740;51.550;6.846;2023-11-19T02:57:30;5.40;;;3.78;;
37907;SDS011;23740;51.550;6.846;2023-11-19T03:00:00;6.93;;;3.35;;
37907;SDS011;23740;51.550;6.846;2023-11-19T03:02:39;8.05;;;3.40;;
37907;SDS011;23740;51.550;6.846;2023-11-19T03:05:11;7.63;;;3.03;;
37907;SDS011;23740;51.550;6.846;2023-11-19T03:07:41;10.98;;;3.30;;
37907;SDS011;23740;51.550;6.846;2023-11-19T03:10:10;6.15;;;3.10;;
37907;SDS011;23740;51.550;6.846;2023-11-19T03:12:40;8.10;;;3.17;;
37907;SDS011;23740;51.550;6.846;2023-11-19T03:15:09;8.27;;;3.40;;
37907;SDS011;23740;51.550;6.846;2023-11-19T03:17:38;6.28;;;2.72;;
37907;SDS011;23740;51.550;6.846;2023-11-19T03:20:07;9.23;;;2.92;;
37907;SDS011;23740;51.550;6.846;2023-11-19T03:22:38;5.80;;;2.72;;
37907;SDS011;23740;51.550;6.846;2023-11-19T03:25:08;5.15;;;2.75;;
37907;SDS011;23740;51.550;6.846;2023-11-19T03:27:36;6.90;;;2.75;;
37907;SDS011;23740;51.550;6.846;2023-11-19T03:30:05;7.85;;;2.40;;
37907;SDS011;23740;51.550;6.846;2023-11-19T03:32:35;9.48;;;1.95;;
37907;SDS011;23740;51.550;6.846;2023-11-19T03:35:03;3.92;;;1.40;;
37907;SDS011;23740;51.550;6.846;2023-11-19T03:37:33;3.72;;;1.83;;
37907;SDS011;23740;51.550;6.846;2023-11-19T03:40:02;6.45;;;2.00;;
37907;SDS011;23740;51.550;6.846;2023-11-19T03:42:30;3.85;;;1.58;;
37907;SDS011;23740;51.550;6.846;2023-11-19T03:44:58;5.78;;;1.35;;
37907;SDS011;23740;51.550;6.846;2023-11-19T03:47:26;4.85;;;1.42;;
37907;SDS011;23740;51.550;6.846;2023-11-19T03:49:56;3.78;;;1.52;;
37907;SDS011;23740;51.550;6.846;2023-11-19T03:52:23;6.03;;;1.63;;
37907;SDS011;23740;51.550;6.846;2023-11-19T03:54:52;3.60;;;1.73;;
37907;SDS011;23740;51.550;6.846;2023-11-19T03:57:21;4.60;;;1.58;;
37907;SDS011;23740;51.550;6.846;2023-11-19T03:59:49;3.40;;;1.50;;
37907;SDS011;23740;51.550;6.846;2023-11-19T04:02:17;4.85;;;1.77;;
37907;SDS011;23740;51.550;6.846;2023-11-19T04:04:45;5.97;;;1.80;;
37907;SDS011;23740;51.550;6.846;2023-11-19T04:07:14;6.75;;;1.52;;
37907;SDS011;23740;51.550;6.846;2023-11-19T04:09:42;5.78;;;1.70;;
37907;SDS011;23740;51.550;6.846;2023-11-19T04:12:10;9.65;;;1.85;;
37907;SDS011;23740;51.550;6.846;2023-11-19T04:14:38;6.53;;;1.48;;
37907;SDS011;23740;51.550;6.846;2023-11-19T04:17:06;6.65;;;1.98;;
37907;SDS011;23740;51.550;6.846;2023-11-19T04:19:34;5.65;;;1.70;;
37907;SDS011;23740;51.550;6.846;2023-11-19T04:22:02;6.10;;;1.35;;
37907;SDS011;23740;51.550;6.846;2023-11-19T04:24:32;6.43;;;1.92;;
37907;SDS011;23740;51.550;6.846;2023-11-19T04:26:59;8.68;;;1.77;;
37907;SDS011;23740;51.550;6.846;2023-11-19T04:29:27;7.10;;;1.63;;
37907;SDS011;23740;51.550;6.846;2023-11-19T04:31:57;7.15;;;1.48;;
37907;SDS011;23740;51.550;6.846;2023-11-19T04:34:24;9.13;;;1.70;;
37907;SDS011;23740;51.550;6.846;2023-11-19T04:36:52;9.43;;;1.85;;
37907;SDS011;23740;51.550;6.846;2023-11-19T04:39:20;7.60;;;2.08;;
37907;SDS011;23740;51.550;6.846;2023-11-19T04:41:50;8.30;;;1.63;;
37907;SDS011;23740;51.550;6.846;2023-11-19T04:44:19;8.20;;;1.63;;
37907;SDS011;23740;51.550;6.846;2023-11-19T04:46:47;10.82;;;2.15;;
37907;SDS011;23740;51.550;6.846;2023-11-19T04:49:15;10.98;;;2.03;;
37907;SDS011;23740;51.550;6.846;2023-11-19T04:51:45;8.20;;;2.10;;
37907;SDS011;23740;51.550;6.846;2023-11-19T04:54:14;8.82;;;2.00;;
37907;SDS011;23740;51.550;6.846;2023-11-19T04:56:44;10.77;;;1.90;;
37907;SDS011;23740;51.550;6.846;2023-11-19T04:59:14;7.47;;;1.70;;
37907;SDS011;23740;51.550;6.846;2023-11-19T05:01:46;10.52;;;2.00;;
37907;SDS011;23740;51.550;6.846;2023-11-19T05:04:14;8.90;;;1.77;;
37907;SDS011;23740;51.550;6.846;2023-11-19T05:06:42;5.25;;;1.75;;
37907;SDS011;23740;51.550;6.846;2023-11-19T05:09:10;10.32;;;2.30;;
37907;SDS011;23740;51.550;6.846;2023-11-19T05:11:39;8.98;;;2.05;;
37907;SDS011;23740;51.550;6.846;2023-11-19T05:14:10;12.50;;;2.15;;
37907;SDS011;23740;51.550;6.846;2023-11-19T05:16:40;8.25;;;2.03;;
37907;SDS011;23740;51.550;6.846;2023-11-19T05:19:09;6.78;;;2.22;;
37907;SDS011;23740;51.550;6.846;2023-11-19T05:21:37;14.40;;;2.63;;
37907;SDS011;23740;51.550;6.846;2023-11-19T05:24:05;8.48;;;2.08;;
37907;SDS011;23740;51.550;6.846;2023-11-19T05:26:33;14.25;;;2.10;;
37907;SDS011;23740;51.550;6.846;2023-11-19T05:29:01;6.25;;;1.85;;
37907;SDS011;23740;51.550;6.846;2023-11-19T05:31:29;13.85;;;2.42;;
37907;SDS011;23740;51.550;6.846;2023-11-19T05:34:02;9.52;;;2.00;;
37907;SDS011;23740;51.550;6.846;2023-11-19T05:36:30;10.25;;;2.10;;
37907;SDS011;23740;51.550;6.846;2023-11-19T05:38:59;7.05;;;2.70;;
37907;SDS011;23740;51.550;6.846;2023-11-19T05:41:27;14.20;;;2.25;;
37907;SDS011;23740;51.550;6.846;2023-11-19T05:43:55;14.85;;;2.40;;
37907;SDS011;23740;51.550;6.846;2023-11-19T05:46:22;9.30;;;2.13;;
37907;SDS011;23740;51.550;6.846;2023-11-19T05:48:52;8.15;;;1.55;;
37907;SDS011;23740;51.550;6.846;2023-11-19T05:51:21;8.00;;;1.60;;
37907;SDS011;23740;51.550;6.846;2023-11-19T05:53:50;10.68;;;1.60;;
37907;SDS011;23740;51.550;6.846;2023-11-19T05:56:18;13.25;;;2.42;;
37907;SDS011;23740;51.550;6.846;2023-11-19T05:58:48;9.50;;;2.55;;
37907;SDS011;23740;51.550;6.846;2023-11-19T06:01:16;10.85;;;2.25;;
37907;SDS011;23740;51.550;6.846;2023-11-19T06:03:44;12.43;;;2.40;;
37907;SDS011;23740;51.550;6.846;2023-11-19T06:06:16;18.67;;;2.20;;
37907;SDS011;23740;51.550;6.846;2023-11-19T06:08:46;10.20;;;1.95;;
37907;SDS011;23740;51.550;6.846;2023-11-19T06:11:14;10.75;;;2.45;;
37907;SDS011;23740;51.550;6.846;2023-11-19T06:13:45;13.02;;;2.20;;
37907;SDS011;23740;51.550;6.846;2023-11-19T06:16:14;10.85;;;1.95;;
37907;SDS011;23740;51.550;6.846;2023-11-19T06:18:42;6.90;;;1.60;;
37907;SDS011;23740;51.550;6.846;2023-11-19T06:21:10;13.77;;;2.58;;
37907;SDS011;23740;51.550;6.846;2023-11-19T06:23:38;12.50;;;2.08;;
37907;SDS011;23740;51.550;6.846;2023-11-19T06:26:07;8.88;;;2.40;;
37907;SDS011;23740;51.550;6.846;2023-11-19T06:28:36;12.68;;;2.95;;
37907;SDS011;23740;51.550;6.846;2023-11-19T06:31:04;7.65;;;2.45;;
37907;SDS011;23740;51.550;6.846;2023-11-19T06:33:32;7.50;;;1.90;;
37907;SDS011;23740;51.550;6.846;2023-11-19T06:36:00;11.45;;;1.92;;
37907;SDS011;23740;51.550;6.846;2023-11-19T06:38:27;9.80;;;2.00;;
37907;SDS011;23740;51.550;6.846;2023-11-19T06:40:55;7.53;;;1.70;;
37907;SDS011;23740;51.550;6.846;2023-11-19T06:43:24;8.10;;;2.10;;
37907;SDS011;23740;51.550;6.846;2023-11-19T06:46:13;18.13;;;2.95;;
37907;SDS011;23740;51.550;6.846;2023-11-19T06:48:42;12.05;;;2.33;;
37907;SDS011;23740;51.550;6.846;2023-11-19T06:51:10;9.23;;;2.35;;
37907;SDS011;23740;51.550;6.846;2023-11-19T06:53:38;11.77;;;2.38;;
37907;SDS011;23740;51.550;6.846;2023-11-19T06:56:16;7.47;;;2.25;;
37907;SDS011;23740;51.550;6.846;2023-11-19T06:58:46;11.57;;;1.95;;
37907;SDS011;23740;51.550;6.846;2023-11-19T07:01:15;10.93;;;2.05;;
37907;SDS011;23740;51.550;6.846;2023-11-19T07:03:43;12.48;;;2.50;;
37907;SDS011;23740;51.550;6.846;2023-11-19T07:06:13;11.40;;;2.55;;
37907;SDS011;23740;51.550;6.846;2023-11-19T07:08:41;13.90;;;2.70;;
37907;SDS011;23740;51.550;6.846;2023-11-19T07:11:11;9.25;;;2.15;;
37907;SDS011;23740;51.550;6.846;2023-11-19T07:13:40;13.18;;;3.03;;
37907;SDS011;23740;51.550;6.846;2023-11-19T07:16:10;14.27;;;1.90;;
37907;SDS011;23740;51.550;6.846;2023-11-19T07:18:38;10.20;;;2.50;;
37907;SDS011;23740;51.550;6.846;2023-11-19T07:21:06;12.32;;;2.33;;
37907;SDS011;23740;51.550;6.846;2023-11-19T07:23:36;12.10;;;2.25;;
37907;SDS011;23740;51.550;6.846;2023-11-19T07:26:05;16.83;;;4.18;;
37907;SDS011;23740;51.550;6.846;2023-11-19T07:28:35;9.50;;;2.63;;
37907;SDS011;23740;51.550;6.846;2023-11-19T07:31:03;11.73;;;2.22;;
37907;SDS011;23740;51.550;6.846;2023-11-19T07:33:35;15.77;;;2.35;;
37907;SDS011;23740;51.550;6.846;2023-11-19T07:36:04;12.75;;;2.28;;
37907;SDS011;23740;51.550;6.846;2023-11-19T07:38:32;9.43;;;1.95;;
37907;SDS011;23740;51.550;6.846;2023-11-19T07:41:00;12.20;;;1.80;;
37907;SDS011;23740;51.550;6.846;2023-11-19T07:43:28;9.27;;;2.00;;
37907;SDS011;23740;51.550;6.846;2023-11-19T07:45:56;8.77;;;1.90;;
37907;SDS011;23740;51.550;6.846;2023-11-19T07:48:25;11.20;;;1.85;;
37907;SDS011;23740;51.550;6.846;2023-11-19T07:50:54;8.68;;;1.83;;
37907;SDS011;23740;51.550;6.846;2023-11-19T07:53:23;10.40;;;2.20;;
37907;SDS011;23740;51.550;6.846;2023-11-19T07:55:51;15.23;;;2.28;;
37907;SDS011;23740;51.550;6.846;2023-11-19T07:58:18;8.38;;;2.15;;
37907;SDS011;23740;51.550;6.846;2023-11-19T08:00:46;9.48;;;2.15;;
37907;SDS011;23740;51.550;6.846;2023-11-19T08:03:14;12.15;;;2.17;;
37907;SDS011;23740;51.550;6.846;2023-11-19T08:05:42;7.40;;;1.88;;
37907;SDS011;23740;51.550;6.846;2023-11-19T08:08:12;10.40;;;1.75;;
37907;SDS011;23740;51.550;6.846;2023-11-19T08:10:40;10.95;;;2.10;;
37907;SDS011;23740;51.550;6.846;2023-11-19T08:13:11;12.43;;;1.88;;
37907;SDS011;23740;51.550;6.846;2023-11-19T08:15:45;12.18;;;2.22;;
37907;SDS011;23740;51.550;6.846;2023-11-19T08:18:13;11.57;;;1.65;;
37907;SDS011;23740;51.550;6.846;2023-11-19T08:20:41;15.30;;;2.90;;
37907;SDS011;23740;51.550;6.846;2023-11-19T08:23:11;8.65;;;2.45;;
37907;SDS011;23740;51.550;6.846;2023-11-19T08:25:40;11.32;;;2.45;;
37907;SDS011;23740;51.550;6.846;2023-11-19T08:28:08;13.60;;;2.05;;
37907;SDS011;23740;51.550;6.846;2023-11-19T08:30:38;10.30;;;2.10;;
37907;SDS011;23740;51.550;6.846;2023-11-19T08:33:07;12.35;;;2.53;;
37907;SDS011;23740;51.550;6.846;2023-11-19T08:35:35;15.18;;;2.53;;
37907;SDS011;23740;51.550;6.846;2023-11-19T08:38:03;16.25;;;2.60;;
37907;SDS011;23740;51.550;6.846;2023-11-19T08:40:32;13.35;;;2.65;;
37907;SDS011;23740;51.550;6.846;2023-11-19T08:43:00;7.65;;;2.28;;
37907;SDS011;23740;51.550;6.846;2023-11-19T08:45:28;9.73;;;1.77;;
37907;SDS011;23740;51.550;6.846;2023-11-19T08:47:56;13.23;;;2.47;;
37907;SDS011;23740;51.550;6.846;2023-11-19T08:50:24;11.65;;;2.60;;
37907;SDS011;23740;51.550;6.846;2023-11-19T08:52:52;11.90;;;2.45;;
37907;SDS011;23740;51.550;6.846;2023-11-19T08:55:20;9.23;;;2.25;;
37907;SDS011;23740;51.550;6.846;2023-11-19T08:57:49;9.35;;;2.13;;
37907;SDS011;23740;51.550;6.846;2023-11-19T09:00:17;13.10;;;2.92;;
37907;SDS011;23740;51.550;6.846;2023-11-19T09:02:47;10.57;;;2.70;;
37907;SDS011;23740;51.550;6.846;2023-11-19T09:05:15;12.13;;;3.13;;
37907;SDS011;23740;51.550;6.846;2023-11-19T09:07:43;12.88;;;2.65;;
37907;SDS011;23740;51.550;6.846;2023-11-19T09:10:11;9.35;;;2.17;;
37907;SDS011;23740;51.550;6.846;2023-11-19T09:12:39;10.10;;;2.70;;
37907;SDS011;23740;51.550;6.846;2023-11-19T09:15:08;10.68;;;1.80;;
37907;SDS011;23740;51.550;6.846;2023-11-19T09:17:37;8.82;;;2.08;;
37907;SDS011;23740;51.550;6.846;2023-11-19T09:20:06;10.95;;;2.42;;
37907;SDS011;23740;51.550;6.846;2023-11-19T09:22:35;12.27;;;2.60;;
37907;SDS011;23740;51.550;6.846;2023-11-19T09:25:03;8.10;;;1.88;;
37907;SDS011;23740;51.550;6.846;2023-11-19T09:27:31;11.55;;;2.30;;
37907;SDS011;23740;51.550;6.846;2023-11-19T09:29:59;8.73;;;1.75;;
37907;SDS011;23740;51.550;6.846;2023-11-19T09:32:29;8.60;;;2.40;;
37907;SDS011;23740;51.550;6.846;2023-11-19T09:34:57;8.82;;;2.10;;
37907;SDS011;23740;51.550;6.846;2023-11-19T09:37:25;10.77;;;2.33;;
37907;SDS011;23740;51.550;6.846;2023-11-19T09:39:53;13.30;;;2.10;;
37907;SDS011;23740;51.550;6.846;2023-11-19T09:42:20;12.38;;;2.00;;
37907;SDS011;23740;51.550;6.846;2023-11-19T09:44:48;9.15;;;2.17;;
37907;SDS011;23740;51.550;6.846;2023-11-19T09:47:16;16.65;;;2.28;;
37907;SDS011;23740;51.550;6.846;2023-11-19T09:49:46;7.72;;;2.25;;
37907;SDS011;23740;51.550;6.846;2023-11-19T09:52:14;10.35;;;2.58;;
37907;SDS011;23740;51.550;6.846;2023-11-19T09:54:42;6.93;;;1.60;;
37907;SDS011;23740;51.550;6.846;2023-11-19T09:57:10;10.60;;;2.38;;
37907;SDS011;23740;51.550;6.846;2023-11-19T09:59:39;11.43;;;2.33;;
37907;SDS011;23740;51.550;6.846;2023-11-19T10:02:08;8.48;;;1.98;;
37907;SDS011;23740;51.550;6.846;2023-11-19T10:04:39;8.75;;;2.40;;
37907;SDS011;23740;51.550;6.846;2023-11-19T10:07:08;8.85;;;2.28;;
37907;SDS011;23740;51.550;6.846;2023-11-19T10:09:36;9.18;;;2.50;;
37907;SDS011;23740;51.550;6.846;2023-11-19T10:12:04;11.90;;;2.00;;
37907;SDS011;23740;51.550;6.846;2023-11-19T10:14:34;10.20;;;2.38;;
37907;SDS011;23740;51.550;6.846;2023-11-19T10:17:06;11.68;;;2.53;;
37907;SDS011;23740;51.550;6.846;2023-11-19T10:19:35;9.05;;;2.40;;
37907;SDS011;23740;51.550;6.846;2023-11-19T10:22:04;7.97;;;2.22;;
37907;SDS011;23740;51.550;6.846;2023-11-19T10:24:33;12.32;;;2.38;;
37907;SDS011;23740;51.550;6.846;2023-11-19T10:27:07;11.77;;;2.45;;
37907;SDS011;23740;51.550;6.846;2023-11-19T10:29:36;11.40;;;2.22;;
37907;SDS011;23740;51.550;6.846;2023-11-19T10:32:04;11.85;;;2.30;;
37907;SDS011;23740;51.550;6.846;2023-11-19T10:34:52;11.98;;;3.15;;
37907;SDS011;23740;51.550;6.846;2023-11-19T10:37:29;13.48;;;2.28;;
37907;SDS011;23740;51.550;6.846;2023-11-19T10:40:00;11.35;;;2.10;;
37907;SDS011;23740;51.550;6.846;2023-11-19T10:42:31;11.52;;;2.47;;
37907;SDS011;23740;51.550;6.846;2023-11-19T10:45:01;12.50;;;3.05;;
37907;SDS011;23740;51.550;6.846;2023-11-19T10:47:30;11.82;;;2.10;;
37907;SDS011;23740;51.550;6.846;2023-11-19T10:50:02;8.15;;;1.80;;
37907;SDS011;23740;51.550;6.846;2023-11-19T10:52:30;9.82;;;2.05;;
37907;SDS011;23740;51.550;6.846;2023-11-19T10:54:58;9.63;;;2.47;;
37907;SDS011;23740;51.550;6.846;2023-11-19T10:57:31;11.15;;;2.13;;
37907;SDS011;23740;51.550;6.846;2023-11-19T11:00:03;11.02;;;2.42;;
37907;SDS011;23740;51.550;6.846;2023-11-19T11:02:36;13.95;;;3.55;;
37907;SDS011;23740;51.550;6.846;2023-11-19T11:05:08;13.80;;;2.40;;
37907;SDS011;23740;51.550;6.846;2023-11-19T11:07:37;11.93;;;2.50;;
37907;SDS011;23740;51.550;6.846;2023-11-19T11:10:08;8.65;;;2.10;;
37907;SDS011;23740;51.550;6.846;2023-11-19T11:12:37;7.13;;;1.95;;
37907;SDS011;23740;51.550;6.846;2023-11-19T11:15:08;11.18;;;3.08;;
37907;SDS011;23740;51.550;6.846;2023-11-19T11:17:38;8.30;;;2.88;;
37907;SDS011;23740;51.550;6.846;2023-11-19T11:20:07;11.57;;;2.35;;
37907;SDS011;23740;51.550;6.846;2023-11-19T11:22:39;8.95;;;2.30;;
37907;SDS011;23740;51.550;6.846;2023-11-19T11:25:18;8.30;;;2.10;;
37907;SDS011;23740;51.550;6.846;2023-11-19T11:28:05;9.15;;;2.17;;
37907;SDS011;23740;51.550;6.846;2023-11-19T11:30:51;8.38;;;2.30;;
37907;SDS011;23740;51.550;6.846;2023-11-19T11:33:34;7.20;;;1.70;;
37907;SDS011;23740;51.550;6.846;2023-11-19T11:36:11;10.85;;;3.13;;
37907;SDS011;23740;51.550;6.846;2023-11-19T11:38:41;11.45;;;2.45;;
37907;SDS011;23740;51.550;6.846;2023-11-19T11:41:17;7.95;;;1.90;;
37907;SDS011;23740;51.550;6.846;2023-11-19T11:43:47;9.07;;;1.80;;
37907;SDS011;23740;51.550;6.846;2023-11-19T11:49:27;9.63;;;1.92;;
37907;SDS011;23740;51.550;6.846;2023-11-19T11:51:58;7.28;;;1.73;;
37907;SDS011;23740;51.550;6.846;2023-11-19T11:54:26;11.38;;;2.47;;
37907;SDS011;23740;51.550;6.846;2023-11-19T11:57:06;8.95;;;2.28;;
37907;SDS011;23740;51.550;6.846;2023-11-19T11:59:43;6.93;;;1.98;;
37907;SDS011;23740;51.550;6.846;2023-11-19T12:02:13;6.28;;;1.67;;
37907;SDS011;23740;51.550;6.846;2023-11-19T12:04:42;12.65;;;2.47;;
37907;SDS011;23740;51.550;6.846;2023-11-19T12:07:12;10.15;;;1.83;;
37907;SDS011;23740;51.550;6.846;2023-11-19T12:09:41;10.38;;;2.47;;
37907;SDS011;23740;51.550;6.846;2023-11-19T12:12:18;12.32;;;2.45;;
37907;SDS011;23740;51.550;6.846;2023-11-19T12:14:59;10.27;;;2.10;;
37907;SDS011;23740;51.550;6.846;2023-11-19T12:17:43;12.60;;;2.40;;
37907;SDS011;23740;51.550;6.846;2023-11-19T12:20:17;8.60;;;2.55;;
37907;SDS011;23740;51.550;6.846;2023-11-19T12:22:48;13.30;;;2.13;;
37907;SDS011;23740;51.550;6.846;2023-11-19T12:25:17;12.55;;;2.22;;
37907;SDS011;23740;51.550;6.846;2023-11-19T12:27:48;10.60;;;2.10;;
37907;SDS011;23740;51.550;6.846;2023-11-19T12:30:17;12.70;;;1.83;;
37907;SDS011;23740;51.550;6.846;2023-11-19T12:32:45;9.25;;;1.90;;
37907;SDS011;23740;51.550;6.846;2023-11-19T12:35:13;11.75;;;2.30;;
37907;SDS011;23740;51.550;6.846;2023-11-19T12:37:41;6.68;;;1.95;;
37907;SDS011;23740;51.550;6.846;2023-11-19T12:40:11;9.50;;;1.77;;
37907;SDS011;23740;51.550;6.846;2023-11-19T12:42:42;9.32;;;2.03;;
37907;SDS011;23740;51.550;6.846;2023-11-19T12:45:12;7.70;;;2.10;;
37907;SDS011;23740;51.550;6.846;2023-11-19T12:47:40;8.43;;;2.22;;
37907;SDS011;23740;51.550;6.846;2023-11-19T12:50:10;9.45;;;2.10;;
37907;SDS011;23740;51.550;6.846;2023-11-19T12:52:38;8.05;;;2.40;;
37907;SDS011;23740;51.550;6.846;2023-11-19T12:55:24;6.13;;;1.67;;
37907;SDS011;23740;51.550;6.846;2023-11-19T12:57:55;9.38;;;2.00;;
37907;SDS011;23740;51.550;6.846;2023-11-19T13:00:26;8.05;;;2.10;;
37907;SDS011;23740;51.550;6.846;2023-11-19T13:02:55;10.20;;;2.28;;
37907;SDS011;23740;51.550;6.846;2023-11-19T13:05:24;3.97;;;0.90;;
37907;SDS011;23740;51.550;6.846;2023-11-19T13:07:58;9.98;;;1.75;;
37907;SDS011;23740;51.550;6.846;2023-11-19T13:10:26;8.38;;;1.75;;
37907;SDS011;23740;51.550;6.846;2023-11-19T13:13:01;6.10;;;1.98;;
37907;SDS011;23740;51.550;6.846;2023-11-19T13:15:33;8.93;;;2.03;;
37907;SDS011;23740;51.550;6.846;2023-11-19T13:18:02;7.93;;;2.00;;
37907;SDS011;23740;51.550;6.846;2023-11-19T13:20:30;8.77;;;3.70;;
37907;SDS011;23740;51.550;6.846;2023-11-19T13:22:58;7.00;;;1.40;;
37907;SDS011;23740;51.550;6.846;2023-11-19T13:25:26;9.07;;;2.08;;
37907;SDS011;23740;51.550;6.846;2023-11-19T13:27:55;8.77;;;2.53;;
37907;SDS011;23740;51.550;6.846;2023-11-19T13:30:23;8.98;;;2.10;;
37907;SDS011;23740;51.550;6.846;2023-11-19T13:32:54;7.50;;;1.83;;
37907;SDS011;23740;51.550;6.846;2023-11-19T13:35:23;9.43;;;2.17;;
37907;SDS011;23740;51.550;6.846;2023-11-19T13:37:51;6.18;;;2.08;;
37907;SDS011;23740;51.550;6.846;2023-11-19T13:40:20;7.18;;;2.20;;
37907;SDS011;23740;51.550;6.846;2023-11-19T13:42:49;9.30;;;2.60;;
37907;SDS011;23740;51.550;6.846;2023-11-19T13:45:17;8.38;;;2.20;;
37907;SDS011;23740;51.550;6.846;2023-11-19T13:47:47;9.38;;;2.83;;
37907;SDS011;23740;51.550;6.846;2023-11-19T13:50:16;10.15;;;3.35;;
37907;SDS011;23740;51.550;6.846;2023-11-19T13:52:44;12.75;;;3.35;;
37907;SDS011;23740;51.550;6.846;2023-11-19T13:55:13;12.23;;;3.38;;
37907;SDS011;23740;51.550;6.846;2023-11-19T13:57:42;9.73;;;2.72;;
37907;SDS011;23740;51.550;6.846;2023-11-19T14:00:11;10.90;;;2.97;;
37907;SDS011;23740;51.550;6.846;2023-11-19T14:02:43;12.95;;;3.20;;
37907;SDS011;23740;51.550;6.846;2023-11-19T14:05:11;13.48;;;3.13;;
37907;SDS011;23740;51.550;6.846;2023-11-19T14:07:41;8.40;;;2.67;;
37907;SDS011;23740;51.550;6.846;2023-11-19T14:10:09;10.75;;;2.45;;
37907;SDS011;23740;51.550;6.846;2023-11-19T14:12:37;8.43;;;2.90;;
37907;SDS011;23740;51.550;6.846;2023-11-19T14:15:06;13.88;;;2.70;;
37907;SDS011;23740;51.550;6.846;2023-11-19T14:17:35;9.88;;;2.47;;
37907;SDS011;23740;51.550;6.846;2023-11-19T14:20:04;10.50;;;3.15;;
37907;SDS011;23740;51.550;6.846;2023-11-19T14:22:40;9.73;;;2.88;;
37907;SDS011;23740;51.550;6.846;2023-11-19T14:25:09;7.78;;;2.78;;
37907;SDS011;23740;51.550;6.846;2023-11-19T14:27:38;11.65;;;3.78;;
37907;SDS011;23740;51.550;6.846;2023-11-19T14:30:07;9.13;;;3.00;;
37907;SDS011;23740;51.550;6.846;2023-11-19T14:32:37;7.00;;;2.33;;
37907;SDS011;23740;51.550;6.846;2023-11-19T14:35:06;10.10;;;2.38;;
37907;SDS011;23740;51.550;6.846;2023-11-19T14:37:35;9.48;;;2.40;;
37907;SDS011;23740;51.550;6.846;2023-11-19T14:40:06;12.00;;;3.10;;
37907;SDS011;23740;51.550;6.846;2023-11-19T14:42:38;7.72;;;3.08;;
37907;SDS011;23740;51.550;6.846;2023-11-19T14:45:07;6.93;;;2.17;;
37907;SDS011;23740;51.550;6.846;2023-11-19T14:47:38;7.97;;;2.58;;
37907;SDS011;23740;51.550;6.846;2023-11-19T14:50:07;8.25;;;2.10;;
37907;SDS011;23740;51.550;6.846;2023-11-19T14:52:35;8.90;;;2.78;;
37907;SDS011;23740;51.550;6.846;2023-11-19T14:55:04;5.65;;;2.28;;
37907;SDS011;23740;51.550;6.846;2023-11-19T14:57:34;7.35;;;2.10;;
37907;SDS011;23740;51.550;6.846;2023-11-19T15:00:02;5.53;;;1.88;;